sensor_id;sensor_type;location;lat;lon;timestamp;P1;durP1;ratioP1;P2;durP2;ratioP2
42518;SDS011;28147;47.520;18.920;2023-04-25T00:01:45;2.13;;;1.00;;
42518;SDS011;28147;47.520;18.920;2023-04-25T00:04:11;1.85;;;1.02;;
42518;SDS011;28147;47.520;18.920;2023-04-25T00:06:36;1.75;;;0.88;;
42518;SDS011;28147;47.520;18.920;2023-04-25T00:09:05;2.03;;;1.08;;
42518;SDS011;28147;47.520;18.920;2023-04-25T00:11:35;2.15;;;0.90;;
42518;SDS011;28147;47.520;18.920;2023-04-25T00:14:01;1.50;;;1.00;;
42518;SDS011;28147;47.520;18.920;2023-04-25T00:16:27;1.23;;;0.88;;
42518;SDS011;28147;47.520;18.920;2023-04-25T00:18:54;1.50;;;1.13;;
42518;SDS011;28147;47.520;18.920;2023-04-25T00:21:20;1.70;;;0.90;;
42518;SDS011;28147;47.520;18.920;2023-04-25T00:23:46;4.13;;;1.35;;
42518;SDS011;28147;47.520;18.920;2023-04-25T00:26:12;2.50;;;1.13;;
42518;SDS011;28147;47.520;18.920;2023-04-25T00:28:38;1.67;;;1.00;;
42518;SDS011;28147;47.520;18.920;2023-04-25T00:31:04;2.35;;;1.25;;
42518;SDS011;28147;47.520;18.920;2023-04-25T00:33:30;1.58;;;1.13;;
42518;SDS011;28147;47.520;18.920;2023-04-25T00:35:55;3.20;;;1.40;;
42518;SDS011;28147;47.520;18.920;2023-04-25T00:38:21;2.38;;;1.65;;
42518;SDS011;28147;47.520;18.920;2023-04-25T00:40:47;2.22;;;1.30;;
42518;SDS011;28147;47.520;18.920;2023-04-25T00:43:12;2.38;;;1.30;;
42518;SDS011;28147;47.520;18.920;2023-04-25T00:45:38;2.30;;;1.50;;
42518;SDS011;28147;47.520;18.920;2023-04-25T00:48:05;2.88;;;1.33;;
42518;SDS011;28147;47.520;18.920;2023-04-25T00:50:32;2.88;;;1.80;;
42518;SDS011;28147;47.520;18.920;2023-04-25T00:52:59;2.30;;;1.55;;
42518;SDS011;28147;47.520;18.920;2023-04-25T00:55:25;2.13;;;1.50;;
42518;SDS011;28147;47.520;18.920;2023-04-25T00:57:51;2.65;;;1.67;;
42518;SDS011;28147;47.520;18.920;2023-04-25T01:00:16;4.80;;;1.95;;
42518;SDS011;28147;47.520;18.920;2023-04-25T01:02:43;3.17;;;1.88;;
42518;SDS011;28147;47.520;18.920;2023-04-25T01:05:09;2.38;;;1.73;;
42518;SDS011;28147;47.520;18.920;2023-04-25T01:07:35;3.95;;;2.20;;
42518;SDS011;28147;47.520;18.920;2023-04-25T01:10:01;3.80;;;2.35;;
42518;SDS011;28147;47.520;18.920;2023-04-25T01:12:27;6.72;;;1.98;;
42518;SDS011;28147;47.520;18.920;2023-04-25T01:14:52;4.50;;;1.48;;
42518;SDS011;28147;47.520;18.920;2023-04-25T01:17:19;3.33;;;1.88;;
42518;SDS011;28147;47.520;18.920;2023-04-25T01:19:45;2.47;;;1.70;;
42518;SDS011;28147;47.520;18.920;2023-04-25T01:22:14;3.42;;;1.80;;
42518;SDS011;28147;47.520;18.920;2023-04-25T01:24:39;2.80;;;1.60;;
42518;SDS011;28147;47.520;18.920;2023-04-25T01:27:05;2.70;;;1.70;;
42518;SDS011;28147;47.520;18.920;2023-04-25T01:29:31;2.65;;;1.50;;
42518;SDS011;28147;47.520;18.920;2023-04-25T01:31:57;3.88;;;1.40;;
42518;SDS011;28147;47.520;18.920;2023-04-25T01:34:24;5.53;;;1.80;;
42518;SDS011;28147;47.520;18.920;2023-04-25T01:36:50;2.33;;;1.60;;
42518;SDS011;28147;47.520;18.920;2023-04-25T01:39:19;3.05;;;1.95;;
42518;SDS011;28147;47.520;18.920;2023-04-25T01:41:46;2.70;;;1.77;;
42518;SDS011;28147;47.520;18.920;2023-04-25T01:44:12;2.67;;;1.38;;
42518;SDS011;28147;47.520;18.920;2023-04-25T01:46:39;2.95;;;1.90;;
42518;SDS011;28147;47.520;18.920;2023-04-25T01:49:04;2.65;;;1.60;;
42518;SDS011;28147;47.520;18.920;2023-04-25T01:51:30;3.28;;;1.90;;
42518;SDS011;28147;47.520;18.920;2023-04-25T01:53:57;5.30;;;1.70;;
42518;SDS011;28147;47.520;18.920;2023-04-25T01:56:22;2.70;;;1.70;;
42518;SDS011;28147;47.520;18.920;2023-04-25T01:58:48;2.20;;;1.52;;
42518;SDS011;28147;47.520;18.920;2023-04-25T02:01:13;2.72;;;1.83;;
42518;SDS011;28147;47.520;18.920;2023-04-25T02:03:39;2.63;;;1.80;;
42518;SDS011;28147;47.520;18.920;2023-04-25T02:06:05;2.83;;;1.60;;
42518;SDS011;28147;47.520;18.920;2023-04-25T02:08:30;3.67;;;2.03;;
42518;SDS011;28147;47.520;18.920;2023-04-25T02:10:56;3.55;;;1.60;;
42518;SDS011;28147;47.520;18.920;2023-04-25T02:13:22;3.58;;;1.65;;
42518;SDS011;28147;47.520;18.920;2023-04-25T02:15:48;4.32;;;1.90;;
42518;SDS011;28147;47.520;18.920;2023-04-25T02:18:13;4.13;;;1.88;;
42518;SDS011;28147;47.520;18.920;2023-04-25T02:20:41;3.70;;;1.67;;
42518;SDS011;28147;47.520;18.920;2023-04-25T02:23:06;3.28;;;1.85;;
42518;SDS011;28147;47.520;18.920;2023-04-25T02:25:31;3.20;;;1.70;;
42518;SDS011;28147;47.520;18.920;2023-04-25T02:27:57;2.65;;;1.50;;
42518;SDS011;28147;47.520;18.920;2023-04-25T02:30:22;3.08;;;1.70;;
42518;SDS011;28147;47.520;18.920;2023-04-25T02:32:47;3.47;;;1.70;;
42518;SDS011;28147;47.520;18.920;2023-04-25T02:35:13;2.95;;;1.75;;
42518;SDS011;28147;47.520;18.920;2023-04-25T02:37:38;2.80;;;1.70;;
42518;SDS011;28147;47.520;18.920;2023-04-25T02:40:04;3.53;;;1.83;;
42518;SDS011;28147;47.520;18.920;2023-04-25T02:42:30;3.05;;;1.80;;
42518;SDS011;28147;47.520;18.920;2023-04-25T02:44:56;3.33;;;1.48;;
42518;SDS011;28147;47.520;18.920;2023-04-25T02:47:21;2.95;;;1.65;;
42518;SDS011;28147;47.520;18.920;2023-04-25T02:49:47;3.10;;;1.67;;
42518;SDS011;28147;47.520;18.920;2023-04-25T02:52:12;2.67;;;1.75;;
42518;SDS011;28147;47.520;18.920;2023-04-25T02:54:38;2.63;;;1.75;;
42518;SDS011;28147;47.520;18.920;2023-04-25T02:57:04;3.00;;;1.73;;
42518;SDS011;28147;47.520;18.920;2023-04-25T02:59:30;3.47;;;1.60;;
42518;SDS011;28147;47.520;18.920;2023-04-25T03:01:55;4.15;;;2.13;;
42518;SDS011;28147;47.520;18.920;2023-04-25T03:04:21;3.88;;;1.92;;
42518;SDS011;28147;47.520;18.920;2023-04-25T03:06:48;2.90;;;1.50;;
42518;SDS011;28147;47.520;18.920;2023-04-25T03:09:14;3.97;;;1.58;;
42518;SDS011;28147;47.520;18.920;2023-04-25T03:11:40;2.67;;;1.60;;
42518;SDS011;28147;47.520;18.920;2023-04-25T03:14:06;3.65;;;1.70;;
42518;SDS011;28147;47.520;18.920;2023-04-25T03:16:31;5.35;;;1.70;;
42518;SDS011;28147;47.520;18.920;2023-04-25T03:18:57;3.22;;;1.77;;
42518;SDS011;28147;47.520;18.920;2023-04-25T03:21:22;4.35;;;1.90;;
42518;SDS011;28147;47.520;18.920;2023-04-25T03:23:48;2.80;;;1.73;;
42518;SDS011;28147;47.520;18.920;2023-04-25T03:26:13;3.60;;;2.10;;
42518;SDS011;28147;47.520;18.920;2023-04-25T03:28:39;2.97;;;1.67;;
42518;SDS011;28147;47.520;18.920;2023-04-25T03:31:05;3.42;;;1.92;;
42518;SDS011;28147;47.520;18.920;2023-04-25T03:33:32;2.78;;;1.42;;
42518;SDS011;28147;47.520;18.920;2023-04-25T03:35:57;2.63;;;1.63;;
42518;SDS011;28147;47.520;18.920;2023-04-25T03:38:23;3.58;;;2.00;;
42518;SDS011;28147;47.520;18.920;2023-04-25T03:40:49;3.00;;;1.85;;
42518;SDS011;28147;47.520;18.920;2023-04-25T03:43:15;2.83;;;1.88;;
42518;SDS011;28147;47.520;18.920;2023-04-25T03:45:41;2.92;;;1.83;;
42518;SDS011;28147;47.520;18.920;2023-04-25T03:48:06;3.65;;;2.10;;
42518;SDS011;28147;47.520;18.920;2023-04-25T03:50:32;3.83;;;2.40;;
42518;SDS011;28147;47.520;18.920;2023-04-25T03:52:57;3.45;;;2.20;;
42518;SDS011;28147;47.520;18.920;2023-04-25T03:55:23;5.90;;;2.20;;
42518;SDS011;28147;47.520;18.920;2023-04-25T03:57:48;4.47;;;2.05;;
42518;SDS011;28147;47.520;18.920;2023-04-25T04:00:13;3.33;;;1.92;;
42518;SDS011;28147;47.520;18.920;2023-04-25T04:02:39;3.50;;;2.17;;
42518;SDS011;28147;47.520;18.920;2023-04-25T04:05:05;2.63;;;1.85;;
42518;SDS011;28147;47.520;18.920;2023-04-25T04:07:31;3.47;;;1.92;;
42518;SDS011;28147;47.520;18.920;2023-04-25T04:09:58;3.30;;;2.08;;
42518;SDS011;28147;47.520;18.920;2023-04-25T04:12:23;3.47;;;2.10;;
42518;SDS011;28147;47.520;18.920;2023-04-25T04:14:49;3.45;;;2.10;;
42518;SDS011;28147;47.520;18.920;2023-04-25T04:17:15;3.95;;;2.10;;
42518;SDS011;28147;47.520;18.920;2023-04-25T04:19:40;2.90;;;1.98;;
42518;SDS011;28147;47.520;18.920;2023-04-25T04:22:06;3.92;;;1.95;;
42518;SDS011;28147;47.520;18.920;2023-04-25T04:24:32;3.90;;;2.00;;
42518;SDS011;28147;47.520;18.920;2023-04-25T04:26:57;3.15;;;1.98;;
42518;SDS011;28147;47.520;18.920;2023-04-25T04:29:23;3.58;;;2.25;;
42518;SDS011;28147;47.520;18.920;2023-04-25T04:31:49;3.78;;;2.10;;
42518;SDS011;28147;47.520;18.920;2023-04-25T04:34:16;3.53;;;1.98;;
42518;SDS011;28147;47.520;18.920;2023-04-25T04:36:42;3.50;;;1.92;;
42518;SDS011;28147;47.520;18.920;2023-04-25T04:39:10;3.33;;;1.90;;
42518;SDS011;28147;47.520;18.920;2023-04-25T04:41:35;3.33;;;1.90;;
42518;SDS011;28147;47.520;18.920;2023-04-25T04:44:01;4.03;;;2.20;;
42518;SDS011;28147;47.520;18.920;2023-04-25T04:46:26;3.83;;;1.60;;
42518;SDS011;28147;47.520;18.920;2023-04-25T04:48:53;3.20;;;2.10;;
42518;SDS011;28147;47.520;18.920;2023-04-25T04:51:18;3.90;;;2.17;;
42518;SDS011;28147;47.520;18.920;2023-04-25T04:53:44;3.70;;;2.03;;
42518;SDS011;28147;47.520;18.920;2023-04-25T04:56:09;3.28;;;1.90;;
42518;SDS011;28147;47.520;18.920;2023-04-25T04:58:35;3.55;;;1.77;;
42518;SDS011;28147;47.520;18.920;2023-04-25T05:01:01;3.75;;;1.95;;
42518;SDS011;28147;47.520;18.920;2023-04-25T05:03:27;4.07;;;1.83;;
42518;SDS011;28147;47.520;18.920;2023-04-25T05:05:53;4.18;;;2.20;;
42518;SDS011;28147;47.520;18.920;2023-04-25T05:08:18;3.85;;;2.30;;
42518;SDS011;28147;47.520;18.920;2023-04-25T05:10:44;3.63;;;1.80;;
42518;SDS011;28147;47.520;18.920;2023-04-25T05:13:09;3.42;;;1.95;;
42518;SDS011;28147;47.520;18.920;2023-04-25T05:15:35;3.38;;;1.90;;
42518;SDS011;28147;47.520;18.920;2023-04-25T05:18:00;3.53;;;1.83;;
42518;SDS011;28147;47.520;18.920;2023-04-25T05:20:26;3.88;;;2.00;;
42518;SDS011;28147;47.520;18.920;2023-04-25T05:22:52;3.53;;;2.20;;
42518;SDS011;28147;47.520;18.920;2023-04-25T05:25:17;3.13;;;2.03;;
42518;SDS011;28147;47.520;18.920;2023-04-25T05:27:42;4.40;;;2.20;;
42518;SDS011;28147;47.520;18.920;2023-04-25T05:30:08;4.95;;;2.10;;
42518;SDS011;28147;47.520;18.920;2023-04-25T05:32:34;4.93;;;1.95;;
42518;SDS011;28147;47.520;18.920;2023-04-25T05:35:00;2.80;;;1.80;;
42518;SDS011;28147;47.520;18.920;2023-04-25T05:37:26;4.97;;;2.42;;
42518;SDS011;28147;47.520;18.920;2023-04-25T05:39:51;2.83;;;1.83;;
42518;SDS011;28147;47.520;18.920;2023-04-25T05:42:18;4.05;;;2.10;;
42518;SDS011;28147;47.520;18.920;2023-04-25T05:44:44;3.40;;;2.30;;
42518;SDS011;28147;47.520;18.920;2023-04-25T05:47:09;4.68;;;2.30;;
42518;SDS011;28147;47.520;18.920;2023-04-25T05:49:35;4.03;;;2.15;;
42518;SDS011;28147;47.520;18.920;2023-04-25T05:52:00;4.55;;;2.42;;
42518;SDS011;28147;47.520;18.920;2023-04-25T05:54:26;4.20;;;2.20;;
42518;SDS011;28147;47.520;18.920;2023-04-25T05:56:51;4.70;;;2.65;;
42518;SDS011;28147;47.520;18.920;2023-04-25T05:59:17;3.63;;;2.35;;
42518;SDS011;28147;47.520;18.920;2023-04-25T06:01:43;3.85;;;2.28;;
42518;SDS011;28147;47.520;18.920;2023-04-25T06:04:08;4.65;;;2.50;;
42518;SDS011;28147;47.520;18.920;2023-04-25T06:06:34;3.25;;;1.95;;
42518;SDS011;28147;47.520;18.920;2023-04-25T06:08:59;5.45;;;2.40;;
42518;SDS011;28147;47.520;18.920;2023-04-25T06:11:25;3.10;;;2.03;;
42518;SDS011;28147;47.520;18.920;2023-04-25T06:13:50;5.65;;;2.67;;
42518;SDS011;28147;47.520;18.920;2023-04-25T06:16:16;3.38;;;2.40;;
42518;SDS011;28147;47.520;18.920;2023-04-25T06:18:41;4.70;;;2.10;;
42518;SDS011;28147;47.520;18.920;2023-04-25T06:21:06;3.67;;;2.20;;
42518;SDS011;28147;47.520;18.920;2023-04-25T06:23:32;3.92;;;2.30;;
42518;SDS011;28147;47.520;18.920;2023-04-25T06:25:57;3.45;;;2.50;;
42518;SDS011;28147;47.520;18.920;2023-04-25T06:28:23;4.00;;;2.70;;
42518;SDS011;28147;47.520;18.920;2023-04-25T06:30:49;3.90;;;2.58;;
42518;SDS011;28147;47.520;18.920;2023-04-25T06:33:15;3.85;;;2.35;;
42518;SDS011;28147;47.520;18.920;2023-04-25T06:35:40;5.93;;;2.65;;
42518;SDS011;28147;47.520;18.920;2023-04-25T06:38:06;4.18;;;2.67;;
42518;SDS011;28147;47.520;18.920;2023-04-25T06:40:31;5.40;;;2.75;;
42518;SDS011;28147;47.520;18.920;2023-04-25T06:42:57;4.88;;;2.67;;
42518;SDS011;28147;47.520;18.920;2023-04-25T06:45:22;5.50;;;2.70;;
42518;SDS011;28147;47.520;18.920;2023-04-25T06:47:47;4.63;;;2.60;;
42518;SDS011;28147;47.520;18.920;2023-04-25T06:50:13;5.93;;;2.65;;
42518;SDS011;28147;47.520;18.920;2023-04-25T06:52:38;4.18;;;2.50;;
42518;SDS011;28147;47.520;18.920;2023-04-25T06:55:04;3.92;;;2.75;;
42518;SDS011;28147;47.520;18.920;2023-04-25T06:57:30;4.00;;;2.45;;
42518;SDS011;28147;47.520;18.920;2023-04-25T06:59:56;3.92;;;2.70;;
42518;SDS011;28147;47.520;18.920;2023-04-25T07:02:21;4.10;;;2.42;;
42518;SDS011;28147;47.520;18.920;2023-04-25T07:04:47;4.50;;;2.50;;
42518;SDS011;28147;47.520;18.920;2023-04-25T07:07:12;4.63;;;2.72;;
42518;SDS011;28147;47.520;18.920;2023-04-25T07:09:38;4.55;;;3.10;;
42518;SDS011;28147;47.520;18.920;2023-04-25T07:12:03;3.72;;;2.42;;
42518;SDS011;28147;47.520;18.920;2023-04-25T07:14:29;3.72;;;2.20;;
42518;SDS011;28147;47.520;18.920;2023-04-25T07:16:55;5.53;;;2.70;;
42518;SDS011;28147;47.520;18.920;2023-04-25T07:19:23;5.10;;;2.45;;
42518;SDS011;28147;47.520;18.920;2023-04-25T07:21:51;3.38;;;2.38;;
42518;SDS011;28147;47.520;18.920;2023-04-25T07:24:17;3.10;;;2.17;;
42518;SDS011;28147;47.520;18.920;2023-04-25T07:26:42;4.38;;;2.30;;
42518;SDS011;28147;47.520;18.920;2023-04-25T07:29:08;3.47;;;2.13;;
42518;SDS011;28147;47.520;18.920;2023-04-25T07:31:33;4.03;;;2.30;;
42518;SDS011;28147;47.520;18.920;2023-04-25T07:33:59;3.45;;;2.35;;
42518;SDS011;28147;47.520;18.920;2023-04-25T07:36:24;3.65;;;1.95;;
42518;SDS011;28147;47.520;18.920;2023-04-25T07:38:51;4.18;;;2.15;;
42518;SDS011;28147;47.520;18.920;2023-04-25T07:41:16;4.60;;;2.15;;
42518;SDS011;28147;47.520;18.920;2023-04-25T07:43:42;4.00;;;2.45;;
42518;SDS011;28147;47.520;18.920;2023-04-25T07:46:07;4.13;;;2.45;;
42518;SDS011;28147;47.520;18.920;2023-04-25T07:48:32;6.72;;;2.22;;
42518;SDS011;28147;47.520;18.920;2023-04-25T07:50:58;3.40;;;2.17;;
42518;SDS011;28147;47.520;18.920;2023-04-25T07:53:23;3.08;;;2.03;;
42518;SDS011;28147;47.520;18.920;2023-04-25T07:55:49;2.78;;;1.83;;
42518;SDS011;28147;47.520;18.920;2023-04-25T07:58:15;3.35;;;2.03;;
42518;SDS011;28147;47.520;18.920;2023-04-25T08:00:41;4.13;;;2.00;;
42518;SDS011;28147;47.520;18.920;2023-04-25T08:03:07;3.47;;;2.03;;
42518;SDS011;28147;47.520;18.920;2023-04-25T08:05:34;6.30;;;2.20;;
42518;SDS011;28147;47.520;18.920;2023-04-25T08:08:00;2.90;;;1.95;;
42518;SDS011;28147;47.520;18.920;2023-04-25T08:10:25;2.95;;;1.77;;
42518;SDS011;28147;47.520;18.920;2023-04-25T08:12:51;3.92;;;2.30;;
42518;SDS011;28147;47.520;18.920;2023-04-25T08:15:16;3.25;;;1.90;;
42518;SDS011;28147;47.520;18.920;2023-04-25T08:17:42;4.65;;;2.65;;
42518;SDS011;28147;47.520;18.920;2023-04-25T08:20:09;3.60;;;2.17;;
42518;SDS011;28147;47.520;18.920;2023-04-25T08:22:35;4.78;;;2.30;;
42518;SDS011;28147;47.520;18.920;2023-04-25T08:25:00;3.33;;;1.98;;
42518;SDS011;28147;47.520;18.920;2023-04-25T08:27:25;3.97;;;2.03;;
42518;SDS011;28147;47.520;18.920;2023-04-25T08:29:51;4.05;;;2.05;;
42518;SDS011;28147;47.520;18.920;2023-04-25T08:32:16;4.95;;;2.20;;
42518;SDS011;28147;47.520;18.920;2023-04-25T08:34:42;3.35;;;2.15;;
42518;SDS011;28147;47.520;18.920;2023-04-25T08:37:09;3.72;;;2.50;;
42518;SDS011;28147;47.520;18.920;2023-04-25T08:39:35;5.35;;;2.78;;
42518;SDS011;28147;47.520;18.920;2023-04-25T08:42:02;3.13;;;1.92;;
42518;SDS011;28147;47.520;18.920;2023-04-25T08:44:33;3.97;;;2.50;;
42518;SDS011;28147;47.520;18.920;2023-04-25T08:47:01;4.43;;;2.35;;
42518;SDS011;28147;47.520;18.920;2023-04-25T08:49:28;3.50;;;2.20;;
42518;SDS011;28147;47.520;18.920;2023-04-25T08:51:54;3.47;;;2.20;;
42518;SDS011;28147;47.520;18.920;2023-04-25T08:54:24;4.10;;;2.30;;
42518;SDS011;28147;47.520;18.920;2023-04-25T08:56:54;3.67;;;2.47;;
42518;SDS011;28147;47.520;18.920;2023-04-25T08:59:22;4.17;;;2.33;;
42518;SDS011;28147;47.520;18.920;2023-04-25T09:01:48;3.70;;;2.33;;
42518;SDS011;28147;47.520;18.920;2023-04-25T09:04:14;3.78;;;2.10;;
42518;SDS011;28147;47.520;18.920;2023-04-25T09:06:40;3.80;;;2.17;;
42518;SDS011;28147;47.520;18.920;2023-04-25T09:09:07;4.05;;;2.35;;
42518;SDS011;28147;47.520;18.920;2023-04-25T09:11:34;3.17;;;2.08;;
42518;SDS011;28147;47.520;18.920;2023-04-25T09:14:17;4.30;;;2.10;;
42518;SDS011;28147;47.520;18.920;2023-04-25T09:16:57;3.58;;;2.30;;
42518;SDS011;28147;47.520;18.920;2023-04-25T09:19:34;3.38;;;2.20;;
42518;SDS011;28147;47.520;18.920;2023-04-25T09:22:03;2.97;;;1.95;;
42518;SDS011;28147;47.520;18.920;2023-04-25T09:24:30;4.15;;;1.63;;
42518;SDS011;28147;47.520;18.920;2023-04-25T09:26:57;2.67;;;1.73;;
42518;SDS011;28147;47.520;18.920;2023-04-25T09:29:28;2.80;;;1.98;;
42518;SDS011;28147;47.520;18.920;2023-04-25T09:32:11;2.80;;;1.70;;
42518;SDS011;28147;47.520;18.920;2023-04-25T09:34:41;2.78;;;1.83;;
42518;SDS011;28147;47.520;18.920;2023-04-25T09:37:10;3.25;;;1.85;;
42518;SDS011;28147;47.520;18.920;2023-04-25T09:39:39;2.55;;;1.48;;
42518;SDS011;28147;47.520;18.920;2023-04-25T09:42:04;2.60;;;1.60;;
42518;SDS011;28147;47.520;18.920;2023-04-25T09:44:30;2.33;;;1.48;;
42518;SDS011;28147;47.520;18.920;2023-04-25T09:46:56;2.55;;;1.70;;
42518;SDS011;28147;47.520;18.920;2023-04-25T09:49:22;3.15;;;1.60;;
42518;SDS011;28147;47.520;18.920;2023-04-25T09:51:54;2.55;;;1.55;;
42518;SDS011;28147;47.520;18.920;2023-04-25T09:54:23;2.67;;;1.70;;
42518;SDS011;28147;47.520;18.920;2023-04-25T09:56:51;2.40;;;1.65;;
42518;SDS011;28147;47.520;18.920;2023-04-25T09:59:21;2.25;;;1.42;;
42518;SDS011;28147;47.520;18.920;2023-04-25T10:01:50;2.13;;;1.50;;
42518;SDS011;28147;47.520;18.920;2023-04-25T10:04:18;2.22;;;1.35;;
42518;SDS011;28147;47.520;18.920;2023-04-25T10:09:14;1.63;;;1.00;;
42518;SDS011;28147;47.520;18.920;2023-04-25T10:11:40;1.75;;;1.17;;
42518;SDS011;28147;47.520;18.920;2023-04-25T10:14:06;2.83;;;1.00;;
42518;SDS011;28147;47.520;18.920;2023-04-25T10:16:31;1.88;;;1.20;;
42518;SDS011;28147;47.520;18.920;2023-04-25T10:18:57;2.03;;;1.00;;
42518;SDS011;28147;47.520;18.920;2023-04-25T10:21:23;1.25;;;0.80;;
42518;SDS011;28147;47.520;18.920;2023-04-25T10:23:51;1.70;;;1.23;;
42518;SDS011;28147;47.520;18.920;2023-04-25T10:26:17;2.15;;;1.15;;
42518;SDS011;28147;47.520;18.920;2023-04-25T10:29:02;1.73;;;1.00;;
42518;SDS011;28147;47.520;18.920;2023-04-25T10:31:31;1.77;;;0.98;;
42518;SDS011;28147;47.520;18.920;2023-04-25T10:33:58;1.30;;;0.90;;
42518;SDS011;28147;47.520;18.920;2023-04-25T10:36:24;0.80;;;0.75;;
42518;SDS011;28147;47.520;18.920;2023-04-25T10:38:54;1.43;;;0.83;;
42518;SDS011;28147;47.520;18.920;2023-04-25T10:41:20;0.77;;;0.60;;
42518;SDS011;28147;47.520;18.920;2023-04-25T10:43:48;0.75;;;0.75;;
42518;SDS011;28147;47.520;18.920;2023-04-25T10:46:24;0.60;;;0.55;;
42518;SDS011;28147;47.520;18.920;2023-04-25T10:51:24;0.40;;;0.40;;
42518;SDS011;28147;47.520;18.920;2023-04-25T10:56:38;1.00;;;0.68;;
42518;SDS011;28147;47.520;18.920;2023-04-25T11:09:28;1.25;;;0.68;;
42518;SDS011;28147;47.520;18.920;2023-04-25T11:11:55;1.38;;;0.60;;
42518;SDS011;28147;47.520;18.920;2023-04-25T11:14:21;0.60;;;0.50;;
42518;SDS011;28147;47.520;18.920;2023-04-25T11:16:52;1.92;;;0.60;;
42518;SDS011;28147;47.520;18.920;2023-04-25T11:19:19;1.15;;;0.60;;
42518;SDS011;28147;47.520;18.920;2023-04-25T11:21:45;0.68;;;0.50;;
42518;SDS011;28147;47.520;18.920;2023-04-25T11:24:10;0.65;;;0.45;;
42518;SDS011;28147;47.520;18.920;2023-04-25T11:26:36;0.57;;;0.50;;
42518;SDS011;28147;47.520;18.920;2023-04-25T11:29:02;0.45;;;0.38;;
42518;SDS011;28147;47.520;18.920;2023-04-25T11:31:28;1.23;;;0.50;;
42518;SDS011;28147;47.520;18.920;2023-04-25T11:33:56;0.60;;;0.43;;
42518;SDS011;28147;47.520;18.920;2023-04-25T11:36:22;0.30;;;0.30;;
42518;SDS011;28147;47.520;18.920;2023-04-25T11:38:49;0.63;;;0.40;;
42518;SDS011;28147;47.520;18.920;2023-04-25T11:41:16;0.75;;;0.50;;
42518;SDS011;28147;47.520;18.920;2023-04-25T11:43:42;0.93;;;0.50;;
42518;SDS011;28147;47.520;18.920;2023-04-25T11:46:08;1.15;;;0.70;;
42518;SDS011;28147;47.520;18.920;2023-04-25T11:48:38;0.90;;;0.50;;
42518;SDS011;28147;47.520;18.920;2023-04-25T11:51:05;1.60;;;0.60;;
42518;SDS011;28147;47.520;18.920;2023-04-25T11:53:30;2.70;;;0.73;;
42518;SDS011;28147;47.520;18.920;2023-04-25T11:55:56;0.68;;;0.50;;
42518;SDS011;28147;47.520;18.920;2023-04-25T11:58:21;1.23;;;0.60;;
42518;SDS011;28147;47.520;18.920;2023-04-25T12:00:46;0.55;;;0.55;;
42518;SDS011;28147;47.520;18.920;2023-04-25T12:03:12;6.40;;;1.15;;
42518;SDS011;28147;47.520;18.920;2023-04-25T12:05:37;1.25;;;0.82;;
42518;SDS011;28147;47.520;18.920;2023-04-25T12:08:11;1.65;;;0.88;;
42518;SDS011;28147;47.520;18.920;2023-04-25T12:10:41;1.52;;;0.80;;
42518;SDS011;28147;47.520;18.920;2023-04-25T12:16:02;0.80;;;0.73;;
42518;SDS011;28147;47.520;18.920;2023-04-25T12:18:28;1.33;;;0.80;;
42518;SDS011;28147;47.520;18.920;2023-04-25T12:20:53;1.67;;;0.70;;
42518;SDS011;28147;47.520;18.920;2023-04-25T12:23:28;1.35;;;1.00;;
42518;SDS011;28147;47.520;18.920;2023-04-25T12:25:55;0.98;;;0.77;;
42518;SDS011;28147;47.520;18.920;2023-04-25T12:28:22;1.35;;;0.80;;
42518;SDS011;28147;47.520;18.920;2023-04-25T12:30:56;1.55;;;0.80;;
42518;SDS011;28147;47.520;18.920;2023-04-25T12:33:28;1.48;;;0.70;;
42518;SDS011;28147;47.520;18.920;2023-04-25T12:35:56;2.30;;;1.40;;
42518;SDS011;28147;47.520;18.920;2023-04-25T12:38:28;1.85;;;0.80;;
42518;SDS011;28147;47.520;18.920;2023-04-25T12:40:55;1.20;;;0.70;;
42518;SDS011;28147;47.520;18.920;2023-04-25T12:43:22;1.10;;;0.75;;
42518;SDS011;28147;47.520;18.920;2023-04-25T12:45:48;1.05;;;0.70;;
42518;SDS011;28147;47.520;18.920;2023-04-25T12:48:15;1.38;;;0.75;;
42518;SDS011;28147;47.520;18.920;2023-04-25T12:50:40;3.65;;;1.00;;
42518;SDS011;28147;47.520;18.920;2023-04-25T12:53:06;0.77;;;0.63;;
42518;SDS011;28147;47.520;18.920;2023-04-25T12:55:32;1.00;;;0.80;;
42518;SDS011;28147;47.520;18.920;2023-04-25T12:57:57;0.90;;;0.77;;
42518;SDS011;28147;47.520;18.920;2023-04-25T13:00:22;2.60;;;0.65;;
42518;SDS011;28147;47.520;18.920;2023-04-25T13:02:48;1.00;;;0.70;;
42518;SDS011;28147;47.520;18.920;2023-04-25T13:05:14;1.40;;;0.77;;
42518;SDS011;28147;47.520;18.920;2023-04-25T13:07:40;1.15;;;0.80;;
42518;SDS011;28147;47.520;18.920;2023-04-25T13:10:06;1.52;;;0.75;;
42518;SDS011;28147;47.520;18.920;2023-04-25T13:12:32;1.58;;;0.90;;
42518;SDS011;28147;47.520;18.920;2023-04-25T13:14:58;1.58;;;0.90;;
42518;SDS011;28147;47.520;18.920;2023-04-25T13:17:23;1.15;;;0.63;;
42518;SDS011;28147;47.520;18.920;2023-04-25T13:19:49;1.63;;;0.93;;
42518;SDS011;28147;47.520;18.920;2023-04-25T13:22:14;1.08;;;0.75;;
42518;SDS011;28147;47.520;18.920;2023-04-25T13:24:41;2.42;;;0.95;;
42518;SDS011;28147;47.520;18.920;2023-04-25T13:27:07;1.30;;;0.80;;
42518;SDS011;28147;47.520;18.920;2023-04-25T13:29:32;1.17;;;0.70;;
42518;SDS011;28147;47.520;18.920;2023-04-25T13:32:00;6.60;;;1.40;;
42518;SDS011;28147;47.520;18.920;2023-04-25T13:34:26;1.75;;;0.85;;
42518;SDS011;28147;47.520;18.920;2023-04-25T13:36:51;0.85;;;0.50;;
42518;SDS011;28147;47.520;18.920;2023-04-25T13:39:17;2.00;;;0.93;;
42518;SDS011;28147;47.520;18.920;2023-04-25T13:41:42;1.73;;;1.00;;
42518;SDS011;28147;47.520;18.920;2023-04-25T13:44:08;3.88;;;1.08;;
42518;SDS011;28147;47.520;18.920;2023-04-25T13:46:33;1.58;;;1.00;;
42518;SDS011;28147;47.520;18.920;2023-04-25T13:48:59;2.30;;;1.17;;
42518;SDS011;28147;47.520;18.920;2023-04-25T13:51:26;1.10;;;0.75;;
42518;SDS011;28147;47.520;18.920;2023-04-25T13:53:51;2.47;;;0.80;;
42518;SDS011;28147;47.520;18.920;2023-04-25T13:56:17;1.77;;;1.00;;
42518;SDS011;28147;47.520;18.920;2023-04-25T13:58:44;2.50;;;1.00;;
42518;SDS011;28147;47.520;18.920;2023-04-25T14:01:10;5.50;;;1.20;;
42518;SDS011;28147;47.520;18.920;2023-04-25T14:03:35;2.15;;;1.00;;
42518;SDS011;28147;47.520;18.920;2023-04-25T14:06:01;2.80;;;0.95;;
42518;SDS011;28147;47.520;18.920;2023-04-25T14:08:27;1.95;;;0.73;;
42518;SDS011;28147;47.520;18.920;2023-04-25T14:10:53;2.35;;;1.02;;
42518;SDS011;28147;47.520;18.920;2023-04-25T14:13:19;1.20;;;0.80;;
42518;SDS011;28147;47.520;18.920;2023-04-25T14:15:44;2.42;;;0.95;;
42518;SDS011;28147;47.520;18.920;2023-04-25T14:18:10;1.88;;;1.00;;
42518;SDS011;28147;47.520;18.920;2023-04-25T14:20:35;1.60;;;0.80;;
42518;SDS011;28147;47.520;18.920;2023-04-25T14:23:01;1.20;;;0.88;;
42518;SDS011;28147;47.520;18.920;2023-04-25T14:25:27;1.60;;;0.90;;
42518;SDS011;28147;47.520;18.920;2023-04-25T14:27:52;1.05;;;0.80;;
42518;SDS011;28147;47.520;18.920;2023-04-25T14:30:18;1.40;;;0.90;;
42518;SDS011;28147;47.520;18.920;2023-04-25T14:32:45;1.33;;;0.70;;
42518;SDS011;28147;47.520;18.920;2023-04-25T14:35:10;1.50;;;0.75;;
42518;SDS011;28147;47.520;18.920;2023-04-25T14:37:36;1.55;;;0.88;;
42518;SDS011;28147;47.520;18.920;2023-04-25T14:40:02;2.55;;;0.90;;
42518;SDS011;28147;47.520;18.920;2023-04-25T14:42:28;1.50;;;0.95;;
42518;SDS011;28147;47.520;18.920;2023-04-25T14:44:53;1.02;;;0.90;;
42518;SDS011;28147;47.520;18.920;2023-04-25T14:47:19;2.50;;;1.08;;
42518;SDS011;28147;47.520;18.920;2023-04-25T14:49:45;2.05;;;0.90;;